Time;durP1;ratioP1;P1;durP2;ratioP2;P2;SDS_P1;SDS_P2;PMS_P1;PMS_P2;Temp;Humidity;BMP_temperature;BMP_pressure;BME280_temperature;BME280_humidity;BME280_pressure;Samples;Min_cycle;Max_cycle;Signal;HPM_P1;HPM_P2
2023/01/27 00:01:56;;;;;;;3.78;1.30;;;14.80;52.00;;;;;;5102281;27;45341;-68
2023/01/27 00:04:24;;;;;;;3.13;1.15;;;14.80;51.90;;;;;;5092742;27;46180;-68
2023/01/27 00:06:51;;;;;;;3.20;1.33;;;14.80;51.90;;;;;;5094854;27;45411;-68
2023/01/27 00:09:18;;;;;;;4.03;1.60;;;14.80;51.80;;;;;;5098277;27;45267;-68
2023/01/27 00:14:29;;;;;;;5.15;1.40;;;14.80;51.80;;;;;;5101428;27;45385;-68
2023/01/27 00:16:55;;;;;;;4.75;1.30;;;14.80;51.70;;;;;;5104353;27;45294;-68
2023/01/27 00:19:25;;;;;;;4.63;1.38;;;14.80;51.70;;;;;;5094288;27;45587;-68
2023/01/27 00:24:36;;;;;;;2.83;0.90;;;14.80;51.60;;;;;;5089669;27;45687;-68
2023/01/27 00:27:04;;;;;;;4.68;1.30;;;14.80;51.50;;;;;;5096849;27;45413;-68
2023/01/27 00:29:31;;;;;;;2.42;1.20;;;14.70;51.40;;;;;;5104645;27;45483;-68
2023/01/27 00:34:43;;;;;;;3.28;1.40;;;14.70;51.40;;;;;;5093341;27;45927;-69
2023/01/27 00:37:10;;;;;;;3.55;1.13;;;14.70;51.40;;;;;;5094430;27;45217;-68
2023/01/27 00:39:36;;;;;;;1.70;0.85;;;14.70;51.40;;;;;;5100304;27;45275;-68
2023/01/27 00:42:03;;;;;;;4.20;1.13;;;14.70;51.40;;;;;;5092644;27;45666;-68
2023/01/27 00:44:30;;;;;;;2.45;1.10;;;14.70;51.40;;;;;;5103896;27;47072;-68
2023/01/27 00:46:57;;;;;;;5.53;1.20;;;14.70;51.40;;;;;;5102309;27;45337;-68
2023/01/27 00:49:23;;;;;;;4.05;1.08;;;14.70;51.50;;;;;;5104289;27;45549;-67
2023/01/27 00:51:53;;;;;;;3.85;1.38;;;14.70;51.40;;;;;;5102774;27;45484;-68
2023/01/27 00:54:21;;;;;;;2.53;0.90;;;14.80;51.40;;;;;;5099808;27;47086;-68
2023/01/27 00:56:48;;;;;;;3.83;1.10;;;14.80;51.40;;;;;;5103465;27;45341;-68
2023/01/27 00:59:15;;;;;;;3.78;1.20;;;14.80;51.30;;;;;;5097445;27;45359;-69
2023/01/27 01:01:41;;;;;;;2.17;0.88;;;14.80;51.40;;;;;;5098317;27;45589;-68
2023/01/27 01:04:08;;;;;;;2.75;1.23;;;14.80;51.20;;;;;;5101794;27;47134;-68
2023/01/27 01:06:35;;;;;;;3.50;1.23;;;14.80;51.10;;;;;;5103432;27;45488;-68
2023/01/27 01:09:03;;;;;;;5.50;1.33;;;14.80;51.10;;;;;;5104257;27;45534;-68
2023/01/27 01:11:30;;;;;;;5.03;1.33;;;14.80;51.20;;;;;;5102551;27;45318;-68
2023/01/27 01:13:56;;;;;;;5.20;1.45;;;14.80;51.10;;;;;;5099972;27;46269;-68
2023/01/27 01:16:24;;;;;;;4.25;1.17;;;14.80;51.10;;;;;;5100907;27;45565;-68
2023/01/27 01:18:51;;;;;;;3.33;1.30;;;14.80;51.10;;;;;;5101750;27;45575;-68
2023/01/27 01:21:18;;;;;;;5.88;1.40;;;14.80;51.00;;;;;;5093820;27;45413;-68
2023/01/27 01:23:46;;;;;;;2.85;1.10;;;14.80;51.00;;;;;;5099425;27;46170;-68
2023/01/27 01:26:15;;;;;;;4.25;1.40;;;14.80;51.00;;;;;;5092909;27;45423;-68
2023/01/27 01:28:43;;;;;;;2.50;1.08;;;14.70;50.90;;;;;;5102345;27;45393;-68
2023/01/27 01:31:12;;;;;;;4.35;1.70;;;14.80;51.00;;;;;;5094501;27;45383;-68
2023/01/27 01:33:40;;;;;;;2.22;0.98;;;14.70;50.80;;;;;;5095060;27;47976;-68
2023/01/27 01:36:08;;;;;;;2.90;1.10;;;14.70;50.90;;;;;;5101904;27;45295;-68
2023/01/27 01:38:35;;;;;;;2.63;1.13;;;14.70;50.80;;;;;;5102981;27;45343;-68
2023/01/27 01:41:03;;;;;;;2.78;1.05;;;14.70;50.70;;;;;;5102974;27;45791;-68
2023/01/27 01:43:31;;;;;;;2.42;1.20;;;14.80;50.70;;;;;;5103609;27;45464;-68
2023/01/27 01:45:58;;;;;;;4.32;1.15;;;14.80;50.60;;;;;;5099235;27;45467;-68
2023/01/27 01:48:32;;;;;;;3.85;1.45;;;14.80;50.60;;;;;;5103255;27;45446;-68
2023/01/27 01:51:02;;;;;;;5.28;1.50;;;14.80;50.50;;;;;;5102747;27;45505;-68
2023/01/27 01:53:33;;;;;;;2.95;1.10;;;14.80;50.40;;;;;;5101897;27;47106;-68
2023/01/27 01:56:05;;;;;;;2.80;1.65;;;14.80;50.40;;;;;;5097667;27;45801;-68
2023/01/27 01:58:34;;;;;;;4.05;1.50;;;14.80;50.40;;;;;;5099896;27;45406;-68
2023/01/27 02:01:03;;;;;;;2.75;1.27;;;14.80;50.40;;;;;;5100806;27;45222;-68
2023/01/27 02:03:32;;;;;;;2.40;1.02;;;14.80;50.20;;;;;;5102158;27;46395;-68
2023/01/27 02:05:59;;;;;;;2.38;1.23;;;14.80;50.20;;;;;;5102236;27;45372;-68
2023/01/27 02:08:29;;;;;;;2.58;1.13;;;14.80;50.30;;;;;;5102678;27;45346;-68
2023/01/27 02:10:57;;;;;;;3.53;1.40;;;14.80;50.20;;;;;;5103373;27;45526;-68
2023/01/27 02:13:24;;;;;;;4.78;1.33;;;14.80;50.20;;;;;;5099590;27;45477;-68
2023/01/27 02:15:55;;;;;;;2.70;1.08;;;14.80;50.10;;;;;;5101911;27;45238;-68
2023/01/27 02:18:22;;;;;;;3.47;1.42;;;14.80;50.30;;;;;;5101689;27;45603;-68
2023/01/27 02:20:51;;;;;;;2.80;1.15;;;14.80;50.30;;;;;;5102743;27;45479;-68
2023/01/27 02:23:28;;;;;;;3.80;1.70;;;14.80;50.40;;;;;;5102779;27;45375;-68
2023/01/27 02:26:00;;;;;;;3.97;1.35;;;14.80;50.30;;;;;;5102550;27;45261;-68
2023/01/27 02:28:28;;;;;;;2.28;1.55;;;14.80;50.30;;;;;;5102471;27;45423;-68
2023/01/27 02:30:54;;;;;;;4.03;1.52;;;14.70;50.30;;;;;;5101375;27;45499;-68
2023/01/27 02:33:21;;;;;;;5.20;1.30;;;14.80;50.50;;;;;;5102349;27;45475;-68
2023/01/27 02:35:56;;;;;;;4.30;1.63;;;14.70;50.50;;;;;;5098130;27;45366;-68
2023/01/27 02:38:25;;;;;;;3.90;1.67;;;14.80;50.50;;;;;;5102847;27;45271;-68
2023/01/27 02:40:55;;;;;;;3.97;1.50;;;14.80;50.40;;;;;;5102654;27;45325;-68
2023/01/27 02:43:23;;;;;;;3.58;1.45;;;14.80;50.10;;;;;;5102164;27;45295;-68
2023/01/27 02:45:50;;;;;;;4.25;1.50;;;14.80;50.00;;;;;;5105829;27;45435;-68
2023/01/27 02:48:17;;;;;;;2.33;1.65;;;14.80;50.10;;;;;;5106443;27;45378;-68
2023/01/27 02:50:44;;;;;;;5.25;1.85;;;14.80;50.00;;;;;;5106125;27;45411;-68
2023/01/27 02:53:10;;;;;;;2.88;1.33;;;14.80;49.90;;;;;;5102173;27;46307;-68
2023/01/27 02:55:37;;;;;;;3.47;1.92;;;14.80;50.00;;;;;;5105847;27;45380;-68
2023/01/27 02:58:04;;;;;;;4.95;1.95;;;14.80;49.90;;;;;;5106031;27;45422;-68
2023/01/27 03:00:32;;;;;;;3.25;1.40;;;14.80;50.00;;;;;;5105632;27;45720;-68
2023/01/27 03:02:59;;;;;;;3.03;1.50;;;14.80;50.10;;;;;;5104734;27;45693;-68
2023/01/27 03:05:26;;;;;;;3.05;1.48;;;14.80;50.00;;;;;;5103545;27;45559;-69
2023/01/27 03:07:53;;;;;;;3.80;1.80;;;14.80;50.00;;;;;;5105547;27;45441;-68
2023/01/27 03:10:20;;;;;;;2.90;1.40;;;14.80;50.20;;;;;;5099894;27;45613;-68
2023/01/27 03:12:46;;;;;;;4.15;1.60;;;14.80;50.10;;;;;;5098995;27;48093;-68
2023/01/27 03:18:16;;;;;;;2.97;1.88;;;14.80;50.20;;;;;;5100933;27;45302;-69
2023/01/27 03:20:45;;;;;;;2.33;1.73;;;14.80;50.20;;;;;;5098415;27;45519;-68
2023/01/27 03:23:12;;;;;;;4.03;1.88;;;14.80;50.10;;;;;;5104507;27;46509;-68
2023/01/27 03:25:43;;;;;;;4.57;1.75;;;14.80;50.20;;;;;;5101863;27;45300;-68
2023/01/27 03:28:10;;;;;;;3.67;1.73;;;14.80;50.20;;;;;;5102348;27;45536;-68
2023/01/27 03:30:37;;;;;;;3.80;2.17;;;14.80;50.00;;;;;;5103017;27;45500;-68
2023/01/27 03:33:06;;;;;;;2.97;1.85;;;14.80;50.00;;;;;;5098813;27;46295;-68
2023/01/27 03:35:37;;;;;;;2.88;1.70;;;14.80;49.90;;;;;;5098439;27;45364;-68
2023/01/27 03:46:18;;;;;;;2.42;1.42;;;14.80;49.10;;;;;;5098985;27;45555;-68
2023/01/27 03:48:50;;;;;;;2.70;1.38;;;14.80;49.10;;;;;;5100746;27;45485;-69
2023/01/27 03:51:17;;;;;;;2.28;1.33;;;14.80;49.10;;;;;;5099078;27;45283;-68
2023/01/27 03:53:44;;;;;;;1.58;1.20;;;14.80;49.10;;;;;;5100136;27;46632;-68
2023/01/27 03:56:12;;;;;;;1.65;1.40;;;14.80;49.10;;;;;;5101662;27;46088;-68
2023/01/27 03:58:39;;;;;;;2.80;1.70;;;14.80;49.10;;;;;;5104872;27;45395;-68
2023/01/27 04:01:12;;;;;;;1.90;1.20;;;14.80;49.10;;;;;;5096548;27;45488;-68
2023/01/27 04:09:12;;;;;;;1.67;1.30;;;14.70;49.00;;;;;;5101692;27;45354;-69
2023/01/27 04:11:54;;;;;;;2.55;1.40;;;14.80;49.10;;;;;;5105060;27;45249;-68
2023/01/27 04:14:23;;;;;;;2.13;1.40;;;14.70;49.00;;;;;;5101731;27;47685;-68
2023/01/27 04:16:51;;;;;;;1.63;1.23;;;14.70;49.00;;;;;;5103140;27;45332;-68
2023/01/27 04:19:19;;;;;;;2.00;1.23;;;14.70;49.00;;;;;;5104238;27;45367;-69
2023/01/27 04:21:47;;;;;;;1.90;1.20;;;14.70;49.00;;;;;;5104298;27;45299;-68
2023/01/27 04:24:21;;;;;;;1.85;1.45;;;14.60;48.90;;;;;;5103864;27;46271;-68
2023/01/27 04:26:49;;;;;;;2.67;1.20;;;14.70;48.90;;;;;;5101782;27;45292;-68
2023/01/27 04:29:16;;;;;;;1.90;1.25;;;14.60;48.80;;;;;;5100009;27;45263;-69
2023/01/27 04:31:43;;;;;;;1.42;1.15;;;14.70;48.40;;;;;;5103857;27;45754;-69
2023/01/27 04:34:11;;;;;;;4.00;1.73;;;14.70;48.30;;;;;;5103090;27;46265;-68
2023/01/27 04:36:38;;;;;;;1.38;1.15;;;14.70;48.10;;;;;;5100421;27;45277;-68
2023/01/27 04:39:06;;;;;;;2.45;1.40;;;14.70;48.20;;;;;;5096467;27;45312;-68
2023/01/27 04:41:33;;;;;;;2.20;1.52;;;14.70;49.20;;;;;;5086692;27;45599;-69
2023/01/27 04:44:00;;;;;;;2.33;1.60;;;14.70;48.00;;;;;;5094167;27;46365;-68
2023/01/27 04:46:27;;;;;;;2.33;1.50;;;14.70;48.00;;;;;;5094999;27;45443;-68
2023/01/27 04:48:53;;;;;;;2.05;1.40;;;14.60;47.70;;;;;;5104319;27;45417;-69
2023/01/27 04:51:20;;;;;;;2.25;1.30;;;14.60;47.70;;;;;;5103115;27;45221;-69
2023/01/27 04:53:47;;;;;;;2.78;1.73;;;14.60;47.80;;;;;;5093752;27;45476;-69
2023/01/27 04:56:34;;;;;;;2.38;1.63;;;14.60;47.90;;;;;;5091548;27;45445;-69
2023/01/27 04:59:03;;;;;;;2.63;1.73;;;14.60;47.80;;;;;;5091346;27;45420;-68
2023/01/27 05:01:30;;;;;;;3.22;1.92;;;14.60;47.90;;;;;;5089542;27;45471;-68
2023/01/27 05:03:57;;;;;;;2.65;1.63;;;14.60;47.90;;;;;;5093921;27;45465;-69
2023/01/27 05:06:24;;;;;;;2.15;1.55;;;14.60;47.70;;;;;;5098125;27;45755;-69
2023/01/27 05:08:51;;;;;;;2.45;1.90;;;14.60;47.70;;;;;;5097848;27;45446;-68
2023/01/27 05:11:19;;;;;;;3.45;1.90;;;14.50;47.70;;;;;;5100569;27;45428;-68
2023/01/27 05:13:47;;;;;;;3.22;1.90;;;14.50;47.60;;;;;;5096965;27;46410;-68
2023/01/27 05:16:17;;;;;;;3.00;2.00;;;14.50;47.50;;;;;;5094124;27;45555;-68
2023/01/27 05:18:45;;;;;;;3.47;1.80;;;14.50;47.40;;;;;;5097628;27;45476;-68
2023/01/27 05:21:14;;;;;;;2.90;1.95;;;14.50;47.40;;;;;;5103404;27;45418;-69
2023/01/27 05:23:40;;;;;;;3.63;1.90;;;14.50;47.40;;;;;;5095890;27;46630;-68
2023/01/27 05:26:11;;;;;;;3.05;2.05;;;14.60;47.30;;;;;;5095351;27;45378;-69
2023/01/27 05:28:39;;;;;;;3.53;2.00;;;14.50;47.40;;;;;;5102242;27;45669;-67
2023/01/27 05:31:10;;;;;;;2.60;2.03;;;14.60;53.90;;;;;;5102182;27;45280;-69
2023/01/27 05:33:38;;;;;;;2.80;2.05;;;14.60;51.80;;;;;;5095918;27;48231;-68
2023/01/27 05:36:07;;;;;;;2.70;1.83;;;14.60;50.10;;;;;;5102007;27;45409;-68
2023/01/27 05:38:34;;;;;;;2.78;2.15;;;14.60;48.90;;;;;;5095532;27;45500;-69
2023/01/27 05:41:03;;;;;;;3.22;1.88;;;14.70;49.00;;;;;;5103422;27;45561;-68
2023/01/27 05:43:32;;;;;;;4.43;2.17;;;14.60;48.90;;;;;;5102602;27;46419;-68
2023/01/27 05:46:03;;;;;;;3.17;2.22;;;14.60;48.90;;;;;;5102446;27;45403;-68
2023/01/27 05:48:31;;;;;;;3.53;2.40;;;14.60;48.90;;;;;;5103059;27;45341;-68
2023/01/27 05:50:59;;;;;;;4.60;2.70;;;14.60;48.90;;;;;;5103309;27;45283;-69
2023/01/27 05:53:26;;;;;;;3.80;2.50;;;14.60;48.90;;;;;;5102910;27;45537;-69
2023/01/27 05:55:54;;;;;;;5.28;2.40;;;14.60;48.90;;;;;;5094321;27;45802;-68
2023/01/27 05:58:21;;;;;;;4.38;2.72;;;14.60;48.90;;;;;;5101898;27;45414;-68
2023/01/27 06:00:48;;;;;;;4.47;2.72;;;14.60;48.90;;;;;;5098663;27;45401;-68
2023/01/27 06:03:15;;;;;;;2.67;2.10;;;14.60;48.90;;;;;;5098930;27;47465;-68
2023/01/27 06:05:55;;;;;;;4.80;2.80;;;14.50;48.80;;;;;;5102135;27;45363;-68
2023/01/27 06:08:23;;;;;;;4.25;2.70;;;14.50;48.80;;;;;;5108394;27;45355;-68
2023/01/27 06:10:50;;;;;;;5.18;2.83;;;14.50;49.40;;;;;;5093897;27;45494;-68
2023/01/27 06:13:17;;;;;;;6.95;2.78;;;14.50;48.80;;;;;;5094321;27;46094;-68
2023/01/27 06:15:46;;;;;;;4.35;2.40;;;14.50;48.80;;;;;;5094662;27;45455;-68
2023/01/27 06:18:14;;;;;;;6.32;2.85;;;14.50;48.80;;;;;;5100645;27;45389;-69
2023/01/27 06:20:41;;;;;;;4.25;2.47;;;14.50;48.80;;;;;;5108361;27;45655;-68
2023/01/27 06:23:10;;;;;;;5.35;2.83;;;14.60;48.90;;;;;;5113546;27;47518;-69
2023/01/27 06:25:38;;;;;;;4.63;2.50;;;14.60;48.90;;;;;;5104925;27;45544;-68
2023/01/27 06:28:06;;;;;;;4.13;2.65;;;14.60;48.90;;;;;;5098894;27;45661;-68
2023/01/27 06:30:34;;;;;;;3.58;2.40;;;14.60;48.90;;;;;;5098230;27;45268;-68
2023/01/27 06:33:01;;;;;;;3.33;2.33;;;14.60;48.90;;;;;;5105299;27;46603;-68
2023/01/27 06:35:27;;;;;;;4.68;2.92;;;14.50;48.80;;;;;;5099612;27;45266;-68
2023/01/27 06:37:54;;;;;;;3.88;2.72;;;14.50;48.30;;;;;;5104055;27;45285;-68
2023/01/27 06:40:22;;;;;;;4.40;2.97;;;14.50;48.40;;;;;;5104754;27;45352;-68
2023/01/27 06:42:49;;;;;;;4.45;2.47;;;14.40;48.10;;;;;;5095902;27;46594;-68
2023/01/27 06:45:16;;;;;;;3.60;2.50;;;14.40;47.90;;;;;;5103659;27;45896;-68
2023/01/27 06:47:42;;;;;;;6.85;2.90;;;14.40;47.80;;;;;;5103311;27;45376;-69
2023/01/27 06:50:11;;;;;;;4.35;2.50;;;14.40;47.90;;;;;;5109294;27;45359;-68
2023/01/27 06:52:38;;;;;;;3.47;2.33;;;14.40;47.90;;;;;;5108488;27;47525;-69
2023/01/27 06:55:05;;;;;;;4.68;2.40;;;14.40;47.70;;;;;;5109122;27;45557;-68
2023/01/27 06:57:34;;;;;;;3.50;2.10;;;14.40;47.70;;;;;;5108227;27;45403;-69
2023/01/27 07:00:00;;;;;;;3.80;2.40;;;14.40;47.70;;;;;;5104852;27;45418;-68
2023/01/27 07:02:27;;;;;;;3.10;2.28;;;14.40;47.60;;;;;;5107106;27;45411;-68
2023/01/27 07:04:54;;;;;;;3.85;2.20;;;14.40;47.60;;;;;;5110615;27;45270;-68
2023/01/27 07:07:21;;;;;;;4.30;2.50;;;14.40;47.70;;;;;;5111574;27;45457;-68
2023/01/27 07:09:48;;;;;;;3.13;1.90;;;14.40;47.50;;;;;;5107045;27;45466;-68
2023/01/27 07:12:14;;;;;;;3.22;2.20;;;14.40;47.30;;;;;;5108362;27;46422;-68
2023/01/27 07:14:42;;;;;;;2.67;2.05;;;14.50;47.30;;;;;;5102333;27;45943;-68
2023/01/27 07:17:09;;;;;;;4.00;2.20;;;14.60;47.40;;;;;;5098275;27;45401;-68
2023/01/27 07:19:36;;;;;;;3.33;2.00;;;14.60;47.30;;;;;;5105785;27;45271;-69
2023/01/27 07:22:03;;;;;;;4.15;2.30;;;14.60;47.30;;;;;;5105224;27;46404;-68
2023/01/27 07:24:30;;;;;;;2.50;1.80;;;14.60;47.30;;;;;;5095948;27;45368;-68
2023/01/27 07:26:56;;;;;;;3.38;1.88;;;14.60;47.20;;;;;;5101602;27;45322;-68
2023/01/27 07:29:23;;;;;;;4.35;2.33;;;14.60;47.20;;;;;;5108393;27;45342;-69
2023/01/27 07:31:51;;;;;;;2.40;1.77;;;14.60;47.20;;;;;;5094922;27;47431;-68
2023/01/27 07:34:18;;;;;;;2.90;2.08;;;14.60;47.20;;;;;;5095308;27;45285;-68
2023/01/27 07:36:45;;;;;;;3.08;1.77;;;14.60;47.20;;;;;;5098822;27;45476;-68
2023/01/27 07:39:12;;;;;;;3.88;2.05;;;14.60;47.10;;;;;;5102119;27;45360;-69
2023/01/27 07:41:39;;;;;;;2.33;1.40;;;14.60;47.20;;;;;;5101082;27;45313;-68
2023/01/27 07:44:06;;;;;;;2.13;1.60;;;14.60;47.20;;;;;;5104772;27;45323;-68
2023/01/27 07:46:32;;;;;;;2.95;2.00;;;14.60;47.20;;;;;;5095722;27;45297;-68
2023/01/27 07:49:00;;;;;;;2.67;1.60;;;14.60;47.30;;;;;;5099546;27;45456;-67
2023/01/27 07:51:27;;;;;;;2.22;1.50;;;14.50;47.00;;;;;;5104185;27;46296;-68
2023/01/27 07:53:54;;;;;;;2.13;1.70;;;14.50;47.10;;;;;;5105360;27;45295;-68
2023/01/27 07:56:21;;;;;;;2.83;1.85;;;14.50;47.10;;;;;;5104475;27;45374;-68
2023/01/27 07:58:48;;;;;;;2.90;1.80;;;14.50;47.10;;;;;;5101343;27;45550;-68
2023/01/27 08:01:14;;;;;;;3.50;1.70;;;14.50;47.20;;;;;;5104685;27;47917;-68
2023/01/27 08:03:41;;;;;;;2.88;1.80;;;14.50;47.20;;;;;;5098637;27;46010;-68
2023/01/27 08:06:11;;;;;;;3.00;1.58;;;14.50;47.10;;;;;;5102363;27;45390;-68
2023/01/27 08:08:38;;;;;;;3.30;1.90;;;14.50;47.00;;;;;;5104667;27;45354;-68
2023/01/27 08:11:07;;;;;;;3.53;1.70;;;14.50;47.00;;;;;;5095252;27;46706;-68
2023/01/27 08:13:35;;;;;;;1.75;1.30;;;14.60;47.30;;;;;;5091614;27;45635;-68
2023/01/27 08:16:04;;;;;;;2.55;1.70;;;14.60;47.20;;;;;;5089488;27;45406;-69
2023/01/27 08:18:32;;;;;;;2.13;1.60;;;14.60;47.10;;;;;;5096101;27;45540;-68
2023/01/27 08:21:00;;;;;;;1.77;1.30;;;14.60;46.90;;;;;;5091176;27;48023;-68
2023/01/27 08:23:28;;;;;;;2.80;1.40;;;14.60;46.80;;;;;;5096886;27;45190;-68
2023/01/27 08:25:57;;;;;;;1.77;1.35;;;14.70;46.90;;;;;;5105994;27;45387;-69
2023/01/27 08:28:25;;;;;;;1.52;1.20;;;14.70;49.00;;;;;;5107751;27;45802;-68
2023/01/27 08:30:53;;;;;;;2.08;1.33;;;14.70;50.00;;;;;;5101938;27;47203;-68
2023/01/27 08:33:20;;;;;;;2.45;1.35;;;14.60;48.90;;;;;;5101734;27;45408;-68
2023/01/27 08:35:48;;;;;;;1.98;1.23;;;14.60;48.90;;;;;;5095611;27;45484;-68
2023/01/27 08:38:17;;;;;;;2.53;1.33;;;14.60;48.90;;;;;;5100063;27;45374;-68
2023/01/27 08:40:46;;;;;;;1.42;1.30;;;14.60;48.90;;;;;;5100517;27;46685;-68
2023/01/27 08:43:15;;;;;;;1.42;1.20;;;14.60;48.90;;;;;;5096814;27;45304;-68
2023/01/27 08:45:42;;;;;;;1.85;1.30;;;14.60;48.90;;;;;;5096835;27;45308;-68
2023/01/27 08:48:09;;;;;;;1.13;1.02;;;14.60;48.90;;;;;;5104236;27;45485;-68
2023/01/27 08:50:35;;;;;;;1.67;1.23;;;14.60;48.90;;;;;;5095306;27;45369;-69
2023/01/27 08:53:03;;;;;;;1.75;1.23;;;14.50;48.80;;;;;;5103897;27;45547;-69
2023/01/27 08:55:32;;;;;;;2.65;1.20;;;14.60;50.10;;;;;;5103081;27;45276;-68
2023/01/27 08:58:00;;;;;;;1.58;1.20;;;14.60;48.90;;;;;;5090030;27;45241;-69
2023/01/27 09:00:27;;;;;;;2.30;1.10;;;14.60;48.90;;;;;;5102616;27;46386;-68
2023/01/27 09:02:54;;;;;;;1.58;1.00;;;14.50;48.50;;;;;;5103141;27;45764;-68
2023/01/27 09:05:22;;;;;;;1.20;0.95;;;14.60;48.40;;;;;;5090489;27;45489;-68
2023/01/27 09:07:49;;;;;;;1.52;1.20;;;14.60;48.20;;;;;;5100674;27;45536;-68
2023/01/27 09:10:16;;;;;;;1.27;0.90;;;14.60;48.10;;;;;;5113786;27;48135;-69
2023/01/27 09:12:44;;;;;;;1.20;1.05;;;14.60;48.00;;;;;;5109717;27;45317;-69
2023/01/27 09:15:14;;;;;;;0.90;0.80;;;14.60;47.90;;;;;;5096287;27;45321;-68
2023/01/27 09:17:41;;;;;;;1.30;1.00;;;14.60;47.90;;;;;;5107508;27;45339;-69
2023/01/27 09:20:09;;;;;;;1.35;1.08;;;14.60;47.90;;;;;;5109187;27;46415;-68
2023/01/27 09:22:38;;;;;;;1.30;1.20;;;14.60;47.90;;;;;;5108385;27;45745;-68
2023/01/27 09:25:06;;;;;;;1.70;1.10;;;14.60;47.90;;;;;;5104229;27;45395;-69
2023/01/27 09:27:33;;;;;;;2.03;1.00;;;14.60;47.80;;;;;;5097466;27;45569;-68
2023/01/27 09:30:00;;;;;;;2.95;1.00;;;14.60;47.70;;;;;;5103250;27;48054;-68
2023/01/27 09:32:28;;;;;;;1.20;1.00;;;14.60;47.80;;;;;;5103962;27;45216;-68
2023/01/27 09:34:55;;;;;;;2.17;1.10;;;14.60;47.70;;;;;;5103784;27;45343;-68
2023/01/27 09:37:22;;;;;;;1.13;1.02;;;14.60;47.90;;;;;;5102305;27;45477;-68
2023/01/27 09:39:54;;;;;;;1.88;1.30;;;14.60;47.90;;;;;;5104217;27;45375;-69
2023/01/27 09:42:42;;;;;;;0.98;0.82;;;14.60;47.70;;;;;;5110295;27;45474;-68
2023/01/27 09:45:28;;;;;;;2.10;1.08;;;14.60;47.70;;;;;;5093970;27;45656;-68
2023/01/27 09:48:10;;;;;;;1.52;1.00;;;14.60;47.70;;;;;;5087787;27;45205;-69
2023/01/27 09:50:44;;;;;;;1.10;0.98;;;14.60;48.00;;;;;;5084805;27;46370;-68
2023/01/27 09:53:38;;;;;;;2.30;0.95;;;14.60;48.40;;;;;;5083441;27;45658;-68
2023/01/27 09:56:12;;;;;;;1.15;0.93;;;14.60;48.50;;;;;;5096557;27;45279;-68
2023/01/27 09:58:52;;;;;;;1.60;1.23;;;14.70;48.90;;;;;;5099524;27;45451;-68
2023/01/27 10:01:27;;;;;;;1.10;1.00;;;14.70;49.00;;;;;;5101236;27;45509;-69
2023/01/27 10:04:16;;;;;;;1.58;1.02;;;14.70;49.00;;;;;;5099119;27;45455;-69
2023/01/27 10:07:00;;;;;;;1.55;1.10;;;14.70;49.00;;;;;;5091237;27;45510;-68
2023/01/27 10:09:55;;;;;;;0.90;0.90;;;14.80;49.10;;;;;;5104609;27;45432;-68
2023/01/27 10:12:39;;;;;;;1.80;1.13;;;14.80;49.10;;;;;;5106681;27;47535;-68
2023/01/27 10:15:20;;;;;;;1.17;0.95;;;14.80;49.10;;;;;;5097447;27;45215;-68
2023/01/27 10:17:57;;;;;;;2.70;0.70;;;14.80;49.10;;;;;;5100820;27;45327;-68
2023/01/27 10:20:35;;;;;;;1.45;1.10;;;14.80;49.10;;;;;;5103450;27;45658;-68
2023/01/27 10:23:11;;;;;;;1.48;1.17;;;14.80;49.10;;;;;;5102262;27;45301;-68
2023/01/27 10:25:53;;;;;;;2.20;1.30;;;14.70;49.00;;;;;;5101202;27;45376;-68
2023/01/27 10:28:23;;;;;;;1.40;1.00;;;14.70;49.00;;;;;;5102464;27;45371;-68
2023/01/27 10:30:58;;;;;;;1.85;1.00;;;14.70;49.00;;;;;;5096722;27;45623;-68
2023/01/27 10:33:37;;;;;;;1.90;1.17;;;14.70;49.00;;;;;;5102045;27;48322;-68
2023/01/27 10:36:11;;;;;;;1.30;1.10;;;14.70;49.00;;;;;;5098114;27;46226;-68
2023/01/27 10:38:42;;;;;;;1.23;1.13;;;14.70;49.00;;;;;;5105695;27;45418;-68
2023/01/27 10:41:19;;;;;;;1.88;1.20;;;14.70;49.30;;;;;;5099984;27;45395;-68
2023/01/27 10:43:57;;;;;;;1.00;0.90;;;14.70;49.40;;;;;;5101319;27;46290;-69
2023/01/27 10:46:34;;;;;;;1.63;1.35;;;14.70;49.10;;;;;;5101688;27;45342;-68
2023/01/27 10:49:04;;;;;;;2.97;1.08;;;14.70;49.90;;;;;;5098435;27;45557;-69
2023/01/27 10:51:37;;;;;;;2.35;1.30;;;14.80;49.70;;;;;;5102286;27;45411;-68
2023/01/27 10:54:09;;;;;;;1.60;1.15;;;14.80;49.90;;;;;;5095763;27;45383;-69
2023/01/27 10:56:44;;;;;;;1.83;1.13;;;14.90;50.00;;;;;;5093144;27;45644;-68
2023/01/27 10:59:20;;;;;;;1.23;1.10;;;14.90;50.00;;;;;;5099285;27;45470;-68
2023/01/27 11:01:51;;;;;;;1.88;1.30;;;14.90;50.00;;;;;;5102539;27;45380;-68
2023/01/27 11:04:27;;;;;;;2.05;1.08;;;14.90;50.00;;;;;;5101460;27;46474;-70
2023/01/27 11:06:57;;;;;;;2.05;1.23;;;14.90;50.00;;;;;;5100345;27;45372;-69
2023/01/27 11:09:28;;;;;;;0.98;0.88;;;14.90;50.00;;;;;;5105442;27;45414;-68
2023/01/27 11:11:59;;;;;;;1.52;1.30;;;14.90;50.10;;;;;;5105627;27;45478;-69
2023/01/27 11:14:28;;;;;;;1.15;1.05;;;14.80;50.10;;;;;;5103467;27;45414;-68
2023/01/27 11:17:02;;;;;;;1.30;1.10;;;14.80;50.20;;;;;;5107612;27;45531;-68
2023/01/27 11:19:38;;;;;;;1.60;1.00;;;14.80;50.50;;;;;;5107347;27;45288;-68
2023/01/27 11:22:18;;;;;;;1.33;1.15;;;14.80;50.60;;;;;;5101384;27;45484;-69
2023/01/27 11:24:47;;;;;;;1.95;1.02;;;14.80;50.70;;;;;;5111736;27;48269;-69
2023/01/27 11:27:25;;;;;;;1.67;1.02;;;14.80;50.70;;;;;;5105087;27;45335;-68
2023/01/27 11:29:55;;;;;;;1.02;0.95;;;14.80;51.10;;;;;;5105396;27;45297;-69
2023/01/27 11:32:35;;;;;;;1.42;1.10;;;14.90;51.00;;;;;;5094708;27;45570;-69
2023/01/27 11:35:05;;;;;;;1.55;1.17;;;14.90;51.00;;;;;;5104922;27;45408;-69
2023/01/27 11:37:37;;;;;;;1.15;0.95;;;14.90;50.80;;;;;;5104461;27;45292;-68
2023/01/27 11:40:13;;;;;;;1.70;1.10;;;14.90;50.80;;;;;;5104677;27;45328;-68
2023/01/27 11:42:40;;;;;;;1.20;1.10;;;14.90;50.90;;;;;;5099589;27;45547;-68
2023/01/27 11:45:14;;;;;;;1.80;1.25;;;14.90;51.00;;;;;;5104688;27;46188;-69
2023/01/27 11:47:43;;;;;;;1.10;1.00;;;14.90;50.90;;;;;;5100816;27;45395;-68
2023/01/27 11:50:15;;;;;;;2.80;1.20;;;14.90;50.70;;;;;;5088442;27;45403;-69
2023/01/27 11:52:45;;;;;;;1.50;1.00;;;14.90;50.60;;;;;;5100706;27;45405;-69
2023/01/27 11:55:18;;;;;;;2.60;1.17;;;14.90;50.70;;;;;;5096112;27;46964;-69
2023/01/27 11:57:49;;;;;;;1.02;0.85;;;14.90;50.50;;;;;;5101591;27;45449;-68
2023/01/27 12:00:22;;;;;;;1.42;1.08;;;14.90;50.60;;;;;;5104546;27;45349;-69
2023/01/27 12:02:55;;;;;;;1.80;1.00;;;14.90;50.70;;;;;;5104393;27;45288;-68
2023/01/27 12:05:30;;;;;;;1.40;1.23;;;14.90;50.70;;;;;;5102396;27;48063;-69
2023/01/27 12:08:00;;;;;;;1.30;1.08;;;14.90;50.80;;;;;;5105190;27;45312;-68
2023/01/27 12:10:30;;;;;;;1.65;1.00;;;14.90;50.70;;;;;;5103962;27;45603;-69
2023/01/27 12:13:00;;;;;;;2.35;1.17;;;14.90;50.70;;;;;;5101325;27;45554;-68
2023/01/27 12:15:31;;;;;;;1.92;1.30;;;14.90;50.80;;;;;;5098300;27;47179;-69
2023/01/27 12:18:00;;;;;;;1.30;1.20;;;14.90;51.00;;;;;;5097118;27;45252;-69
2023/01/27 12:20:37;;;;;;;1.83;1.20;;;14.90;51.00;;;;;;5095944;27;45280;-68
2023/01/27 12:23:18;;;;;;;1.70;1.13;;;15.00;51.20;;;;;;5076048;28;45370;-68
2023/01/27 12:25:48;;;;;;;1.63;1.40;;;14.90;51.00;;;;;;5095193;27;45559;-68
2023/01/27 12:28:36;;;;;;;1.88;1.05;;;14.90;50.90;;;;;;5098614;27;45478;-69
2023/01/27 12:31:08;;;;;;;2.05;1.20;;;14.90;50.90;;;;;;5092055;27;45427;-68
2023/01/27 12:33:38;;;;;;;1.50;1.20;;;14.90;50.90;;;;;;5096533;27;45265;-68
2023/01/27 12:36:14;;;;;;;1.55;1.20;;;14.90;52.10;;;;;;5099753;27;46394;-68
2023/01/27 12:38:50;;;;;;;1.93;1.30;;;14.90;50.90;;;;;;5102666;27;45453;-68
2023/01/27 12:41:23;;;;;;;1.60;1.40;;;14.80;50.90;;;;;;5103056;27;45577;-69
2023/01/27 12:43:51;;;;;;;1.98;1.50;;;14.80;51.00;;;;;;5099510;27;45308;-69
2023/01/27 12:46:23;;;;;;;1.98;1.42;;;14.80;51.10;;;;;;5102668;27;46421;-68
2023/01/27 12:48:51;;;;;;;1.45;1.20;;;14.80;51.20;;;;;;5105344;27;45237;-68
2023/01/27 12:51:21;;;;;;;1.83;1.30;;;14.80;51.10;;;;;;5104905;27;45273;-69
2023/01/27 12:53:50;;;;;;;1.65;1.40;;;14.80;51.10;;;;;;5096755;27;45560;-68
2023/01/27 12:56:20;;;;;;;1.58;1.30;;;14.90;51.10;;;;;;5099980;27;46414;-68
2023/01/27 12:58:56;;;;;;;1.80;1.50;;;14.90;51.00;;;;;;5103974;27;45470;-68
2023/01/27 13:01:27;;;;;;;1.85;1.50;;;14.90;51.10;;;;;;5104109;27;45430;-68
2023/01/27 13:03:57;;;;;;;1.90;1.20;;;14.90;51.00;;;;;;5098975;27;45314;-69
2023/01/27 13:06:41;;;;;;;2.22;1.50;;;14.90;50.90;;;;;;5099957;27;45224;-69
2023/01/27 13:09:25;;;;;;;1.90;1.23;;;14.90;51.00;;;;;;5100466;27;45319;-68
2023/01/27 13:11:53;;;;;;;1.58;1.30;;;14.80;51.00;;;;;;5103888;27;45496;-68
2023/01/27 13:14:20;;;;;;;1.80;1.40;;;14.80;51.10;;;;;;5099463;27;45563;-68
2023/01/27 13:16:54;;;;;;;2.28;1.25;;;14.80;51.10;;;;;;5103352;27;46134;-68
2023/01/27 13:19:30;;;;;;;1.42;1.33;;;14.80;51.20;;;;;;5103885;27;45974;-69
2023/01/27 13:21:58;;;;;;;2.15;1.50;;;14.80;51.20;;;;;;5099444;27;45244;-69
2023/01/27 13:24:33;;;;;;;1.77;1.45;;;14.80;51.30;;;;;;5103319;27;45519;-69
2023/01/27 13:27:02;;;;;;;2.00;1.50;;;14.80;51.10;;;;;;5103336;27;47184;-69